createdAt,value
2023-11-17T00:02:33.396Z,7.47
2023-11-17T00:05:22.637Z,7.43
2023-11-17T00:08:12.008Z,7.10
2023-11-17T00:10:59.935Z,7.10
2023-11-17T00:13:48.099Z,7.10
2023-11-17T00:16:36.196Z,6.88
2023-11-17T00:19:24.244Z,6.90
2023-11-17T00:22:12.131Z,7.10
2023-11-17T00:25:01.782Z,7.43
2023-11-17T00:27:49.912Z,7.95
2023-11-17T00:30:37.969Z,7.35
2023-11-17T00:33:26.059Z,8.30
2023-11-17T00:36:16.561Z,7.82
2023-11-17T00:39:10.266Z,6.63
2023-11-17T00:42:00.008Z,7.57
2023-11-17T00:44:48.370Z,6.10
2023-11-17T00:47:36.348Z,6.60
2023-11-17T00:50:24.719Z,7.07
2023-11-17T00:53:14.143Z,6.57
2023-11-17T00:56:02.733Z,7.10
2023-11-17T00:58:51.932Z,7.10
2023-11-17T01:01:42.210Z,7.93
2023-11-17T01:04:30.239Z,6.97
2023-11-17T01:07:19.369Z,6.80
2023-11-17T01:10:08.761Z,6.68
2023-11-17T01:12:56.742Z,7.68
2023-11-17T01:15:46.740Z,7.55
2023-11-17T01:18:34.523Z,7.03
2023-11-17T01:21:23.108Z,7.70
2023-11-17T01:24:11.220Z,6.82
2023-11-17T01:26:58.942Z,5.75
2023-11-17T01:29:46.815Z,7.55
2023-11-17T01:32:36.038Z,6.65
2023-11-17T01:35:24.293Z,6.13
2023-11-17T01:38:13.020Z,7.68
2023-11-17T01:41:01.004Z,6.18
2023-11-17T01:43:50.001Z,6.20
2023-11-17T01:46:38.228Z,6.60
2023-11-17T01:49:28.296Z,6.20
2023-11-17T01:52:16.125Z,6.20
2023-11-17T01:55:07.131Z,5.75
2023-11-17T01:57:55.687Z,7.40
2023-11-17T02:00:43.838Z,4.28
2023-11-17T02:03:32.306Z,4.53
2023-11-17T02:06:34.809Z,4.70
2023-11-17T02:09:36.009Z,3.70
2023-11-17T02:12:36.973Z,4.25
2023-11-17T02:15:28.629Z,4.28
2023-11-17T02:18:17.489Z,4.68
2023-11-17T02:21:08.169Z,4.50
2023-11-17T02:24:00.796Z,4.63
2023-11-17T02:26:55.691Z,4.38
2023-11-17T02:29:46.083Z,5.20
2023-11-17T02:32:39.817Z,3.97
2023-11-17T02:35:31.334Z,4.47
2023-11-17T02:38:19.134Z,4.85
2023-11-17T02:41:10.233Z,4.82
2023-11-17T02:43:59.599Z,4.13
2023-11-17T02:46:59.941Z,4.53
2023-11-17T02:49:54.291Z,4.55
2023-11-17T02:52:50.039Z,4.97
2023-11-17T02:55:39.356Z,5.10
2023-11-17T02:58:28.636Z,4.63
2023-11-17T03:01:20.136Z,4.45
2023-11-17T03:04:15.218Z,3.92
2023-11-17T03:07:04.041Z,4.00
2023-11-17T03:09:54.011Z,3.75
2023-11-17T03:12:42.081Z,3.58
2023-11-17T03:15:30.595Z,4.32
2023-11-17T03:18:18.515Z,3.97
2023-11-17T03:21:10.349Z,4.10
2023-11-17T03:23:59.875Z,4.22
2023-11-17T03:26:48.092Z,3.38
2023-11-17T03:29:36.417Z,3.67
2023-11-17T03:32:24.604Z,3.33
2023-11-17T03:35:12.575Z,3.38
2023-11-17T03:38:01.916Z,3.83
2023-11-17T03:40:49.820Z,4.18
2023-11-17T03:43:39.058Z,4.97
2023-11-17T03:46:26.962Z,4.50
2023-11-17T03:49:15.660Z,3.95
2023-11-17T03:52:05.794Z,5.03
2023-11-17T03:54:57.580Z,3.92
2023-11-17T03:57:47.256Z,4.10
2023-11-17T04:00:35.421Z,4.22
2023-11-17T04:03:24.064Z,3.85
2023-11-17T04:06:12.207Z,3.72
2023-11-17T04:09:00.154Z,3.88
2023-11-17T04:11:49.979Z,4.32
2023-11-17T04:14:39.696Z,3.90
2023-11-17T04:17:28.013Z,4.07
2023-11-17T04:20:18.817Z,3.58
2023-11-17T04:23:06.718Z,3.63
2023-11-17T04:25:54.659Z,3.38
2023-11-17T04:28:45.305Z,2.85
2023-11-17T04:31:33.512Z,3.17
2023-11-17T04:34:22.842Z,2.78
2023-11-17T04:37:10.867Z,2.95
2023-11-17T04:39:58.853Z,3.25
2023-11-17T04:42:46.648Z,3.28
2023-11-17T04:45:37.557Z,4.32
2023-11-17T04:48:25.413Z,3.22
2023-11-17T04:51:15.100Z,3.95
2023-11-17T04:54:03.104Z,3.92
2023-11-17T04:56:51.021Z,3.05
2023-11-17T04:59:38.917Z,3.50
2023-11-17T05:02:28.415Z,3.13
2023-11-17T05:05:16.742Z,3.47
2023-11-17T05:08:04.617Z,4.88
2023-11-17T05:10:52.843Z,4.47
2023-11-17T05:13:40.707Z,4.60
2023-11-17T05:16:30.333Z,4.75
2023-11-17T05:19:20.719Z,4.05
2023-11-17T05:22:08.726Z,4.88
2023-11-17T05:24:57.030Z,4.75
2023-11-17T05:27:47.401Z,3.63
2023-11-17T05:30:35.539Z,4.05
2023-11-17T05:33:23.835Z,4.75
2023-11-17T05:36:14.347Z,5.82
2023-11-17T05:39:02.396Z,8.57
2023-11-17T05:41:50.246Z,5.97
2023-11-17T05:44:38.212Z,5.85
2023-11-17T05:47:26.001Z,4.57
2023-11-17T05:50:14.349Z,4.90
2023-11-17T05:53:03.846Z,4.47
2023-11-17T05:55:52.161Z,5.13
2023-11-17T05:58:40.218Z,4.80
2023-11-17T06:01:28.099Z,8.20
2023-11-17T06:04:16.330Z,7.70
2023-11-17T06:07:05.999Z,7.97
2023-11-17T06:09:55.558Z,10.07
2023-11-17T06:12:45.077Z,8.60
2023-11-17T06:15:33.154Z,9.50
2023-11-17T06:18:22.102Z,8.43
2023-11-17T06:21:11.313Z,11.15
2023-11-17T06:23:59.569Z,10.57
2023-11-17T06:26:49.028Z,12.10
2023-11-17T06:29:36.923Z,11.15
2023-11-17T06:32:24.932Z,11.13
2023-11-17T06:35:15.435Z,10.85
2023-11-17T06:38:05.379Z,13.15
2023-11-17T06:40:53.502Z,13.88
2023-11-17T06:43:43.023Z,11.93
2023-11-17T06:46:32.326Z,12.23
2023-11-17T06:49:21.903Z,17.88
2023-11-17T06:52:11.309Z,13.43
2023-11-17T06:55:00.397Z,12.27
2023-11-17T06:57:48.310Z,12.23
2023-11-17T07:00:37.613Z,12.05
2023-11-17T07:03:25.818Z,11.95
2023-11-17T07:06:13.876Z,11.43
2023-11-17T07:09:02.624Z,17.02
2023-11-17T07:11:53.219Z,22.35
2023-11-17T07:14:41.251Z,15.65
2023-11-17T07:17:30.663Z,16.23
2023-11-17T07:20:22.157Z,17.02
2023-11-17T07:23:10.649Z,17.42
2023-11-17T07:25:58.655Z,23.13
2023-11-17T07:28:48.056Z,34.90
2023-11-17T07:31:39.887Z,20.15
2023-11-17T07:34:29.499Z,13.27
2023-11-17T07:37:17.442Z,11.95
2023-11-17T07:40:07.055Z,11.45
2023-11-17T07:42:54.982Z,11.80
2023-11-17T07:45:44.136Z,12.07
2023-11-17T07:48:39.125Z,17.73
2023-11-17T07:51:35.717Z,19.83
2023-11-17T07:54:26.278Z,12.13
2023-11-17T07:57:14.648Z,12.82
2023-11-17T08:00:02.537Z,12.02
2023-11-17T08:02:51.795Z,11.00
2023-11-17T08:05:40.298Z,9.50
2023-11-17T08:08:30.733Z,9.02
2023-11-17T08:11:18.874Z,6.70
2023-11-17T08:14:06.944Z,6.60
2023-11-17T08:16:55.259Z,5.65
2023-11-17T08:19:43.286Z,6.68
2023-11-17T08:22:31.724Z,6.75
2023-11-17T08:25:22.075Z,6.53
2023-11-17T08:28:10.072Z,7.07
2023-11-17T08:30:59.019Z,7.40
2023-11-17T08:33:47.014Z,7.10
2023-11-17T08:36:34.963Z,7.10
2023-11-17T08:39:29.480Z,6.22
2023-11-17T08:42:19.700Z,6.80
2023-11-17T08:45:10.204Z,7.60
2023-11-17T08:48:02.439Z,6.63
2023-11-17T08:50:51.760Z,7.22
2023-11-17T08:53:40.065Z,6.88
2023-11-17T08:56:27.877Z,6.25
2023-11-17T08:59:19.030Z,6.55
2023-11-17T09:02:08.457Z,6.93
2023-11-17T09:04:56.302Z,6.57
2023-11-17T09:07:46.231Z,6.45
2023-11-17T09:10:34.282Z,7.70
2023-11-17T09:13:22.614Z,7.72
2023-11-17T09:16:12.153Z,6.72
2023-11-17T09:19:00.540Z,6.90
2023-11-17T09:21:48.820Z,6.40
2023-11-17T09:24:36.787Z,5.63
2023-11-17T09:27:24.784Z,6.47
2023-11-17T09:30:15.942Z,5.63
2023-11-17T09:33:05.787Z,5.72
2023-11-17T09:35:56.020Z,6.05
2023-11-17T09:38:43.841Z,5.85
2023-11-17T09:41:32.121Z,6.05
2023-11-17T09:44:20.313Z,5.10
2023-11-17T09:47:19.929Z,5.50
2023-11-17T09:50:11.722Z,7.25
2023-11-17T09:53:01.685Z,6.22
2023-11-17T09:55:51.849Z,6.50
2023-11-17T09:58:41.183Z,7.38
2023-11-17T10:01:31.344Z,6.55
2023-11-17T10:04:21.631Z,6.95
2023-11-17T10:07:11.819Z,6.53
2023-11-17T10:10:02.826Z,7.75
2023-11-17T10:12:55.403Z,7.53
2023-11-17T10:15:45.915Z,6.43
2023-11-17T10:18:35.113Z,6.60
2023-11-17T10:21:25.221Z,14.45
2023-11-17T10:24:14.543Z,9.25
2023-11-17T10:27:03.299Z,7.03
2023-11-17T10:29:51.738Z,7.00
2023-11-17T10:32:59.272Z,7.88
2023-11-17T10:36:03.036Z,12.18
2023-11-17T10:39:08.250Z,10.30
2023-11-17T10:41:57.882Z,8.50
2023-11-17T10:44:45.870Z,5.95
2023-11-17T10:47:34.287Z,9.50
2023-11-17T10:50:23.689Z,5.28
2023-11-17T10:53:20.913Z,6.63
2023-11-17T10:56:25.662Z,7.53
2023-11-17T10:59:17.653Z,6.35
2023-11-17T11:02:06.274Z,6.28
2023-11-17T11:05:04.002Z,5.78
2023-11-17T11:07:53.476Z,5.68
2023-11-17T11:10:50.005Z,5.40
2023-11-17T11:13:40.281Z,5.68
2023-11-17T11:16:34.135Z,6.43
2023-11-17T11:19:25.280Z,6.28
2023-11-17T11:22:16.087Z,6.68
2023-11-17T11:25:06.965Z,5.25
2023-11-17T11:27:57.298Z,6.40
2023-11-17T11:30:46.414Z,6.10
2023-11-17T11:33:36.842Z,6.32
2023-11-17T11:36:25.093Z,5.57
2023-11-17T11:39:14.295Z,6.63
2023-11-17T11:42:04.549Z,5.95
2023-11-17T11:44:53.031Z,5.80
2023-11-17T11:47:41.962Z,6.40
2023-11-17T11:50:39.406Z,5.22
2023-11-17T11:53:39.882Z,5.75
2023-11-17T11:56:31.049Z,5.97
2023-11-17T11:59:19.095Z,5.00
2023-11-17T12:02:07.956Z,5.68
2023-11-17T12:04:56.044Z,5.47
2023-11-17T12:07:46.756Z,5.50
2023-11-17T12:10:37.346Z,4.30
2023-11-17T12:13:38.451Z,4.80
2023-11-17T12:16:42.223Z,4.88
2023-11-17T12:19:32.912Z,5.15
2023-11-17T12:22:22.892Z,4.80
2023-11-17T12:25:14.605Z,5.80
2023-11-17T12:28:02.813Z,5.35
2023-11-17T12:30:51.316Z,5.28
2023-11-17T12:33:40.570Z,5.30
2023-11-17T12:36:28.643Z,5.50
2023-11-17T12:39:21.462Z,5.18
2023-11-17T12:42:18.216Z,5.43
2023-11-17T12:45:08.363Z,5.97
2023-11-17T12:48:01.067Z,5.00
2023-11-17T12:50:49.069Z,5.10
2023-11-17T12:53:50.952Z,6.07
2023-11-17T12:56:40.826Z,4.95
2023-11-17T12:59:30.447Z,6.20
2023-11-17T13:02:18.921Z,6.60
2023-11-17T13:05:08.384Z,6.05
2023-11-17T13:07:56.309Z,5.30
2023-11-17T13:10:47.524Z,5.75
2023-11-17T13:13:38.234Z,7.03
2023-11-17T13:16:30.490Z,5.28
2023-11-17T13:19:21.262Z,6.45
2023-11-17T13:22:10.477Z,6.28
2023-11-17T13:25:08.994Z,7.05
2023-11-17T13:27:57.703Z,6.18
2023-11-17T13:30:45.450Z,6.53
2023-11-17T13:33:42.632Z,6.53
2023-11-17T13:36:35.389Z,6.65
2023-11-17T13:39:23.653Z,5.28
2023-11-17T13:42:14.544Z,5.38
2023-11-17T13:45:02.913Z,6.55
2023-11-17T13:48:01.589Z,6.03
2023-11-17T13:50:58.423Z,6.20
2023-11-17T13:53:46.583Z,5.93
2023-11-17T13:56:34.714Z,6.20
2023-11-17T13:59:24.849Z,6.13
2023-11-17T14:02:12.730Z,6.00
2023-11-17T14:05:01.918Z,7.88
2023-11-17T14:07:51.176Z,6.15
2023-11-17T14:10:39.500Z,7.25
2023-11-17T14:13:28.459Z,6.15
2023-11-17T14:16:16.590Z,6.20
2023-11-17T14:19:04.621Z,6.65
2023-11-17T14:21:52.624Z,6.00
2023-11-17T14:24:42.818Z,5.22
2023-11-17T14:27:31.403Z,5.78
2023-11-17T14:30:20.877Z,7.28
2023-11-17T14:33:08.793Z,7.20
2023-11-17T14:35:57.081Z,6.50
2023-11-17T14:38:45.794Z,6.78
2023-11-17T14:41:35.330Z,6.80
2023-11-17T14:44:23.919Z,8.38
2023-11-17T14:47:11.977Z,8.25
2023-11-17T14:50:00.894Z,8.65
2023-11-17T14:52:48.880Z,8.70
2023-11-17T14:55:37.790Z,8.37
2023-11-17T14:58:27.353Z,8.38
2023-11-17T15:01:16.410Z,11.27
2023-11-17T15:04:04.958Z,9.60
2023-11-17T15:06:55.207Z,8.65
2023-11-17T15:09:43.534Z,9.43
2023-11-17T15:12:31.615Z,9.95
2023-11-17T15:15:29.439Z,9.07
2023-11-17T15:18:20.819Z,8.57
2023-11-17T15:21:09.570Z,7.50
2023-11-17T15:23:57.666Z,7.28
2023-11-17T15:26:45.679Z,7.18
2023-11-17T15:29:35.227Z,8.82
2023-11-17T15:32:26.136Z,11.48
2023-11-17T15:35:14.828Z,11.82
2023-11-17T15:38:07.965Z,9.90
2023-11-17T15:40:59.408Z,10.50
2023-11-17T15:43:48.639Z,10.95
2023-11-17T15:46:39.785Z,10.75
2023-11-17T15:49:30.524Z,10.55
2023-11-17T15:52:18.497Z,12.10
2023-11-17T15:55:08.470Z,12.52
2023-11-17T15:57:56.601Z,12.68
2023-11-17T16:00:47.063Z,15.13
2023-11-17T16:03:36.077Z,14.93
2023-11-17T16:06:26.857Z,14.55
2023-11-17T16:09:16.736Z,17.75
2023-11-17T16:12:06.223Z,18.05
2023-11-17T16:14:54.605Z,17.83
2023-11-17T16:17:43.051Z,18.98
2023-11-17T16:20:32.913Z,18.90
2023-11-17T16:23:25.074Z,18.60
2023-11-17T16:26:13.471Z,17.13
2023-11-17T16:29:01.585Z,17.67
2023-11-17T16:31:50.700Z,18.23
2023-11-17T16:34:40.154Z,16.08
2023-11-17T16:37:30.751Z,15.70
2023-11-17T16:40:23.573Z,16.17
2023-11-17T16:43:11.996Z,16.52
2023-11-17T16:46:01.087Z,15.65
2023-11-17T16:48:51.548Z,14.93
2023-11-17T16:51:46.324Z,15.55
2023-11-17T16:57:24.969Z,17.75
2023-11-17T17:00:16.029Z,17.10
2023-11-17T17:03:04.251Z,15.80
2023-11-17T17:05:52.498Z,16.98
2023-11-17T17:08:40.663Z,16.10
2023-11-17T17:11:28.707Z,14.18
2023-11-17T17:14:20.921Z,13.20
2023-11-17T17:17:10.569Z,12.25
2023-11-17T17:19:58.518Z,13.00
2023-11-17T17:22:47.895Z,12.27
2023-11-17T17:25:38.471Z,10.63
2023-11-17T17:28:28.170Z,10.80
2023-11-17T17:31:18.837Z,10.60
2023-11-17T17:34:09.278Z,8.23
2023-11-17T17:36:57.207Z,9.73
2023-11-17T17:39:45.521Z,10.43
2023-11-17T17:42:33.582Z,12.60
2023-11-17T17:45:22.860Z,12.55
2023-11-17T17:48:13.567Z,13.63
2023-11-17T17:51:01.723Z,12.85
2023-11-17T17:53:49.550Z,12.57
2023-11-17T17:56:37.528Z,11.98
2023-11-17T17:59:26.540Z,10.93
2023-11-17T18:02:14.855Z,12.95
2023-11-17T18:05:07.392Z,14.05
2023-11-17T18:07:56.435Z,16.05
2023-11-17T18:10:45.487Z,18.98
2023-11-17T18:13:33.748Z,19.30
2023-11-17T18:16:23.060Z,20.02
2023-11-17T18:19:13.707Z,19.48
2023-11-17T18:22:03.333Z,22.67
2023-11-17T18:24:51.357Z,24.33
2023-11-17T18:27:41.064Z,22.38
2023-11-17T18:30:29.606Z,24.58
2023-11-17T18:33:20.822Z,24.77
2023-11-17T18:36:12.022Z,24.92
2023-11-17T18:39:01.371Z,26.98
2023-11-17T18:41:52.524Z,26.38
2023-11-17T18:44:44.160Z,27.15
2023-11-17T18:47:34.223Z,30.80
2023-11-17T18:50:23.189Z,30.48
2023-11-17T18:53:11.450Z,33.30
2023-11-17T18:56:01.783Z,36.33
2023-11-17T18:58:50.946Z,38.78
2023-11-17T19:01:39.507Z,40.83
2023-11-17T19:04:28.583Z,44.70
2023-11-17T19:07:18.388Z,46.03
2023-11-17T19:10:09.986Z,46.70
2023-11-17T19:12:59.925Z,46.70
2023-11-17T19:15:48.189Z,48.22
2023-11-17T19:18:38.672Z,49.95
2023-11-17T19:21:26.961Z,48.30
2023-11-17T19:24:23.185Z,49.53
2023-11-17T19:27:16.020Z,51.83
2023-11-17T19:30:16.074Z,47.78
2023-11-17T19:33:07.342Z,42.33
2023-11-17T19:36:04.341Z,36.00
2023-11-17T19:38:57.601Z,30.85
2023-11-17T19:41:45.711Z,33.03
2023-11-17T19:44:43.729Z,32.67
2023-11-17T19:47:40.823Z,34.97
2023-11-17T19:50:29.336Z,35.30
2023-11-17T19:53:17.750Z,32.70
2023-11-17T19:56:07.100Z,30.42
2023-11-17T19:59:00.298Z,23.77
2023-11-17T20:01:50.358Z,21.27
2023-11-17T20:04:42.641Z,19.85
2023-11-17T20:07:31.490Z,20.00
2023-11-17T20:10:20.346Z,18.67
2023-11-17T20:13:08.591Z,18.65
2023-11-17T20:15:58.017Z,17.77
2023-11-17T20:18:46.611Z,17.25
2023-11-17T20:21:36.404Z,16.42
2023-11-17T20:24:27.231Z,16.00
2023-11-17T20:27:16.504Z,14.50
2023-11-17T20:30:05.419Z,14.63
2023-11-17T20:32:56.034Z,14.63
2023-11-17T20:35:45.865Z,12.95
2023-11-17T20:38:38.094Z,13.13
2023-11-17T20:41:27.447Z,13.85
2023-11-17T20:44:15.688Z,11.60
2023-11-17T20:47:04.018Z,10.00
2023-11-17T20:49:52.104Z,11.48
2023-11-17T20:52:41.741Z,10.90
2023-11-17T20:55:31.219Z,10.50
2023-11-17T20:58:20.083Z,10.77
2023-11-17T21:01:09.816Z,10.38
2023-11-17T21:03:58.896Z,11.00
2023-11-17T21:06:47.054Z,10.55
2023-11-17T21:09:36.619Z,10.55
2023-11-17T21:12:26.501Z,11.32
2023-11-17T21:15:15.381Z,11.48
2023-11-17T21:18:03.305Z,10.43
2023-11-17T21:20:51.595Z,9.38
2023-11-17T21:23:40.513Z,9.02
2023-11-17T21:26:28.852Z,8.45
2023-11-17T21:29:18.639Z,12.70
2023-11-17T21:32:08.671Z,12.38
2023-11-17T21:34:59.045Z,9.93
2023-11-17T21:37:47.699Z,8.25
2023-11-17T21:40:37.499Z,9.13
2023-11-17T21:43:26.373Z,9.93
2023-11-17T21:46:19.135Z,8.38
2023-11-17T21:49:08.158Z,8.73
2023-11-17T21:51:55.897Z,9.15
2023-11-17T21:54:43.953Z,11.15
2023-11-17T21:57:32.042Z,9.93
2023-11-17T22:00:21.049Z,10.50
2023-11-17T22:03:13.312Z,9.70
2023-11-17T22:06:01.406Z,9.30
2023-11-17T22:08:49.827Z,9.65
2023-11-17T22:11:37.660Z,8.43
2023-11-17T22:14:25.572Z,9.18
2023-11-17T22:17:13.757Z,8.43
2023-11-17T22:20:03.268Z,9.73
2023-11-17T22:22:53.424Z,10.57
2023-11-17T22:25:41.734Z,9.70
2023-11-17T22:28:30.073Z,10.15
2023-11-17T22:31:19.886Z,9.52
2023-11-17T22:34:08.204Z,9.55
2023-11-17T22:36:58.266Z,10.05
2023-11-17T22:39:47.182Z,10.50
2023-11-17T22:42:35.590Z,10.68
2023-11-17T22:45:24.295Z,11.18
2023-11-17T22:48:12.245Z,10.13
2023-11-17T22:51:00.291Z,10.32
2023-11-17T22:53:49.635Z,11.45
2023-11-17T22:56:37.783Z,11.60
2023-11-17T22:59:25.603Z,13.60
2023-11-17T23:02:16.947Z,12.70
2023-11-17T23:05:06.490Z,12.68
2023-11-17T23:07:54.410Z,11.75
2023-11-17T23:10:43.821Z,12.18
2023-11-17T23:13:31.876Z,13.45
2023-11-17T23:16:20.581Z,13.80
2023-11-17T23:19:17.790Z,13.38
2023-11-17T23:22:08.768Z,12.43
2023-11-17T23:24:57.828Z,10.07
2023-11-17T23:27:47.538Z,9.10
2023-11-17T23:30:37.107Z,7.80
2023-11-17T23:33:25.248Z,8.20
2023-11-17T23:36:13.198Z,8.98
2023-11-17T23:39:01.246Z,8.65
2023-11-17T23:41:50.301Z,9.18
2023-11-17T23:44:39.632Z,9.05
2023-11-17T23:47:27.546Z,10.30
2023-11-17T23:50:16.172Z,12.00
2023-11-17T23:53:07.239Z,10.98
2023-11-17T23:55:56.148Z,10.73
2023-11-17T23:58:44.538Z,10.80
